Bodega Marine Reserve, California Weather observations

Data are for 10 minute period ending at time listed.
 Day   Time   Solar   Ave.   Ave.  Ave.  Vector  Max.   Baro.   Total    
  of    of     Rad.   Air    Rel.  Wind   Wind   Wind  Press.  Precip.   
Year   Day            Temp.  Hum.  Speed  Dir.   Gust                    
2016   (PST)  Kw/m2    F      %     mph   deg.    mph    mb.     in.     
-------------------------------------------------------------------------
 204   22:10   0.00   52.4    89   18.3   300    23.4   1014.2    0.00 
 204   22:20   0.00   52.3    90   17.9   302    24.3   1014.2    0.00 
 204   22:30   0.00   52.4    89   18.3   304    23.7   1014.2    0.00 
 204   22:40   0.00   52.3    90   16.8   304    24.3   1014.6    0.00 
 204   22:50   0.00   52.1    90   15.3   306    19.6   1014.6    0.00 
 204   23:00   0.00   52.1    90   15.6   307    21.2   1014.6    0.00 
 204   23:10   0.00   52.0    90   15.2   305    19.7   1014.2    0.00 
 204   23:20   0.00   51.9    90   15.2   303    20.1   1014.2    0.00 
 204   23:30   0.00   51.8    90   14.9   303    19.7   1014.2    0.00 
 204   23:40   0.00   51.7    90   14.0   309    19.3   1013.9    0.00 
 204   23:50   0.00   51.6    91   14.1   307    19.2   1013.9    0.00 
 205    0:00   0.00   51.5    91   15.7   302    19.0   1013.9    0.00 
 205    0:10   0.00   51.5    91   15.8   304    21.5   1013.5    0.00 
 205    0:20   0.00   51.6    91   17.4   308    23.0   1013.5    0.00 
 205    0:30   0.00   51.7    90   17.1   307    22.1   1013.2    0.00 
 205    0:40   0.00   51.5    91   15.1   308    19.6   1013.2    0.00 
 205    0:50   0.00   51.4    91   15.2   306    20.5   1013.2    0.00 
 205    1:00   0.00   51.4    91   14.5   305    20.2   1013.2    0.00 
 205    1:10   0.00   51.3    91   15.0   307    19.2   1013.2    0.00 
 205    1:20   0.00   51.3    91   13.9   307    20.1   1013.2    0.00 
 205    1:30   0.00   51.2    91   13.6   310    19.4   1013.2    0.00 
 205    1:40   0.00   51.1    90   12.0   320    18.0   1012.9    0.00 
 205    1:50   0.00   51.1    90    8.0   325    14.9   1012.9    0.00 
 205    2:00   0.00   50.9    90    5.3   327     8.1   1012.9    0.00 
 205    2:10   0.00   50.5    90    4.3   316     8.6   1012.9    0.00 
 205    2:20   0.00   50.1    91    5.0   298     7.2   1012.9    0.00 
 205    2:30   0.00   50.2    91    6.0   295     8.6   1012.9    0.00 
 205    2:40   0.00   49.9    91    4.0   321     8.6   1012.5    0.00 
 205    2:50   0.00   49.6    91    1.6   321     3.0   1012.5    0.00 
 205    3:00   0.00   49.4    92    0.5   118     1.8   1012.5    0.00 
 205    3:10   100.00  99999.0   99999  99999.0   99999   99999.0   99999.0   99999.00 
 205    3:20   100.00  99999.0   99999  99999.0   99999   99999.0   99999.0   99999.00 
 205    3:30   100.00  99999.0   99999  99999.0   99999   99999.0   99999.0   99999.00 
 205    3:40   0.00   49.5    92    3.5   160     4.6   1012.2    0.00 
 205    3:50   0.00   49.1    92    3.6   168     4.6   1012.2    0.00 
 205    4:00   0.00   49.0    93    4.6   167     5.5   1012.2    0.00 
 205    4:10   100.00  99999.0   99999  99999.0   99999   99999.0   99999.0   99999.00 
 205    4:20   100.00  99999.0   99999  99999.0   99999   99999.0   99999.0   99999.00 
 205    4:30   100.00  99999.0   99999  99999.0   99999   99999.0   99999.0   99999.00 
 205    4:40   100.00  99999.0   99999  99999.0   99999   99999.0   99999.0   99999.00 
 205    4:50   100.00  99999.0   99999  99999.0   99999   99999.0   99999.0   99999.00 
 205    5:00   0.00   50.4    93    6.0   123     8.5   1011.5    0.00 
 205    5:10   0.00   50.4    93    6.7   123     9.9   1011.9    0.00 
 205    5:20   0.00   50.7    92    8.7   131    11.2   1011.9    0.00 
 205    5:30   0.00   50.6    92    6.9   124     9.6   1011.9    0.00 
 205    5:40   0.00   50.6    92    5.3   114     9.4   1012.2    0.00 
 205    5:50   0.00   50.5    92    5.6   104     9.3   1012.2    0.00 
 205    6:00   0.00   50.5    93    6.9   101     9.7   1012.2    0.00 
 205    6:10   0.00   50.5    93    3.4   115     6.6   1012.5    0.00 
 205    6:20   0.00   50.6    93    3.0   120     4.5   1012.5    0.00 
 205    6:30   0.02   50.1    92    0.8   108     3.1   1012.5    0.00 
 205    6:40   0.04   50.0    93    1.8   140     2.6   1012.5    0.00 
 205    6:50   0.06   50.5    93    2.9   170     4.5   1012.5    0.00 
 205    7:00   0.08   52.0    93    2.6   184     4.2   1012.5    0.00 
 205    7:10   0.10   52.8    92    2.5   156     5.0   1012.9    0.00 
 205    7:20   0.13   53.0    91    4.2   126     5.5   1012.9    0.00 
 205    7:30   0.16   53.4    90    3.8   119     5.5   1012.9    0.00 
 205    7:40   0.19   53.9    89    4.4   118     7.3   1012.9    0.00 
 205    7:50   0.22   53.9    88    5.1   124     6.9   1012.9    0.00 
 205    8:00   0.25   53.7    87    6.2   124     8.5   1012.9    0.00 
 205    8:10   0.28   54.3    87    5.4   131     7.5   1013.2    0.00 
 205    8:20   0.31   55.1    86    4.7   140     5.8   1013.2    0.00 
 205    8:30   0.35   55.6    84    5.2   144     7.0   1013.5    0.00 
 205    8:40   0.38   56.2    82    3.8   146     6.2   1013.5    0.00 
 205    8:50   0.41   57.4    79    1.8   162     3.1   1013.5    0.00 
 205    9:00   0.44   58.2    78    1.9   184     3.9   1013.5    0.00 
 205    9:10   0.47   58.2    77    4.6   282     7.5   1013.5    0.00 
 205    9:20   0.50   57.8    77    4.8   275     7.4   1013.5    0.00 
 205    9:30   0.53   58.0    76    5.8   273     8.2   1013.9    0.00 
 205    9:40   0.56   58.1    76    7.2   278     9.3   1013.9    0.00 
 205    9:50   0.59   57.9    76    8.1   303    10.3   1013.9    0.00 
 205   10:00   0.62   57.3    78    9.4   290    12.3   1013.9    0.00 
 205   10:10   0.64   56.9    80    8.4   289    11.7   1013.9    0.00 
 205   10:20   0.66   57.4    78   10.7   304    13.5   1013.9    0.00 
 205   10:30   0.69   56.8    79   10.6   310    13.2   1013.5    0.00 
 205   10:40   0.71   57.1    78   10.9   309    13.6   1013.5    0.00 
 205   10:50   0.73   58.4    75    9.4   302    14.2   1013.5    0.00 
 205   11:00   0.76   57.7    77   10.9   304    14.5   1013.5    0.00 
 205   11:10   0.78   57.7    77   11.3   304    14.3   1013.5    0.00 
 205   11:20   0.80   58.2    75   10.6   311    14.5   1013.5    0.00 
 205   11:30   0.82   58.0    75   12.4   308    18.3   1013.5    0.00 
 205   11:40   0.83   58.1    75   14.8   312    19.3   1013.5    0.00 
 205   11:50   0.85   58.7    75   14.6   305    18.9   1013.5    0.00 
 205   12:00   0.86   57.6    77   16.5   306    21.1   1013.5    0.00 
 205   12:10   0.86   57.3    78   17.0   305    22.6   1013.5    0.00 
 205   12:20   0.88   57.9    77   17.5   306    22.7   1013.2    0.00 
 205   12:30   0.89   58.0    77   17.6   307    23.5   1013.2    0.00 
 205   12:40   0.87   57.9    77   18.7   304    23.5   1013.2    0.00 
 205   12:50   0.89   58.2    76   18.1   305    22.6   1013.2    0.00 
 205   13:00   0.86   58.6    75   18.1   302    24.1   1013.2    0.00 
 205   13:10   0.86   58.7    75   18.4   301    24.5   1013.2    0.00 
 205   13:20   0.88   58.4    76   20.5   302    26.6   1012.9    0.00 
 205   13:30   0.90   58.5    76   21.0   302    26.5   1012.9    0.00 
 205   13:40   0.91   58.9    75   22.0   302    27.7   1012.5    0.00 
 205   13:50   0.90   58.7    75   22.8   301    28.3   1012.5    0.00 
 205   14:00   0.90   59.1    74   22.4   300    26.7   1012.2    0.00 
 205   14:10   0.89   59.5    73   19.7   300    25.4   1012.2    0.00 
 205   14:20   0.86   60.0    72   17.8   304    25.5   1012.2    0.00 
 205   14:30   0.88   60.0    72   18.7   306    25.4   1011.9    0.00 
 205   14:40   0.87   60.4    71   20.1   303    26.7   1011.9    0.00 
 205   14:50   0.79   60.5    71   21.1   304    26.7   1011.5    0.00 
 205   15:00   0.66   60.2    72   21.6   303    27.6   1011.5    0.00 
 205   15:10   0.83   59.9    72   22.3   301    28.0   1011.5    0.00 
 205   15:20   0.82   60.0    72   22.7   303    27.5   1011.2    0.00 
 205   15:30   0.24   60.3    71   21.0   306    26.5   1011.2    0.00 
 205   15:40   0.05   60.7    70   21.5   308    27.7   1010.8    0.00 
 205   15:50   0.05   60.2    71   21.7   308    28.4   1010.8    0.00 
 205   16:00   0.27   59.9    72   21.6   310    27.2   1010.8    0.00 
 205   16:10   0.39   59.3    73   21.4   310    26.6   1010.8    0.00 
 205   16:20   0.23   59.6    72   21.9   307    27.8   1010.5    0.00 
 205   16:30   0.53   59.5    73   21.1   310    27.1   1010.5    0.00 
 205   16:40   0.56   59.4    73   21.4   314    27.2   1010.5    0.00 
 205   16:50   0.61   59.2    73   21.9   311    27.4   1010.2    0.00 
 205   17:00   0.57   59.3    73   21.5   312    27.2   1010.2    0.00 
 205   17:10   0.49   59.0    73   21.1   312    26.2   1009.8    0.00 
 205   17:20   0.43   59.1    73   20.6   315    27.0   1009.8    0.00 
 205   17:30   0.07   59.4    72   19.3   312    25.9   1009.8    0.00 
 205   17:40   0.43   59.0    73   20.8   309    27.0   1009.8    0.00 
 205   17:50   0.44   58.5    74   23.5   303    28.6   1009.5    0.00 
 205   18:00   0.41   58.2    75   24.5   300    30.3   1009.1    0.00 
 205   18:10   0.39   57.9    75   24.4   298    30.2   1009.1    0.00 
 205   18:20   0.36   57.8    75   24.6   301    31.6   1008.8    0.00 
 205   18:30   0.33   57.7    76   25.6   301    32.5   1008.8    0.00 
 205   18:40   0.29   57.2    77   26.5   300    32.0   1008.5    0.00 
 205   18:50   0.25   56.7    78   25.6   300    31.9   1008.5    0.00 
 205   19:00   0.22   56.3    79   26.1   301    31.7   1008.1    0.00 
 205   19:10   0.18   56.1    79   24.6   301    31.1   1008.5    0.00 
 205   19:20   0.16   55.7    80   21.9   307    27.2   1008.5    0.00 
 205   19:30   0.13   55.4    81   22.5   311    26.8   1008.1    0.00 
 205   19:40   0.10   54.9    82   24.0   309    28.4   1008.1    0.00 
 205   19:50   0.08   54.6    83   23.0   310    28.6   1008.1    0.00 
 205   20:00   0.06   54.2    84   23.2   311    28.1   1008.1    0.00 
 205   20:10   0.03   53.9    84   23.3   312    28.3   1008.1    0.00 
 205   20:20   0.02   53.5    85   23.6   310    28.6   1008.1    0.00 
 205   20:30   0.00   53.3    86   24.4   309    29.2   1008.1    0.00 
 205   20:40   0.00   53.1    86   24.1   308    29.7   1008.1    0.00 
 205   20:50   0.00   52.9    87   22.8   308    28.1   1008.1    0.00 
 205   21:00   0.00   52.8    87   21.6   308    26.6   1008.1    0.00 
 205   21:10   0.00   52.6    87   21.3   307    27.9   1008.1    0.00 
 205   21:20   0.00   52.4    88   21.5   304    27.7   1008.1    0.00 
 205   21:30   0.00   52.3    88   21.1   304    27.4   1008.1    0.00 
 205   21:40   0.00   52.3    88   19.8   303    25.5   1008.1    0.00 
 205   21:50   0.00   52.2    88   19.3   301    23.9   1008.5    0.00 
 205   22:00   0.00   52.1    88   17.9   302    23.5   1008.5    0.00 

Return to Bodega Marine Reserve graphs page.


Western Regional Climate Center,wrcc@dri.edu